createdAt,value
2023-05-09T00:01:31.717Z,4.38
2023-05-09T00:03:59.609Z,4.73
2023-05-09T00:06:27.912Z,5.10
2023-05-09T00:08:55.867Z,4.72
2023-05-09T00:11:23.309Z,4.97
2023-05-09T00:13:50.896Z,4.47
2023-05-09T00:16:18.754Z,4.50
2023-05-09T00:18:47.187Z,4.32
2023-05-09T00:21:14.553Z,4.45
2023-05-09T00:23:41.839Z,4.35
2023-05-09T00:26:10.165Z,3.63
2023-05-09T00:28:38.282Z,3.83
2023-05-09T00:31:05.677Z,4.00
2023-05-09T00:33:32.992Z,4.32
2023-05-09T00:36:00.362Z,4.05
2023-05-09T00:38:28.306Z,3.67
2023-05-09T00:40:55.699Z,3.47
2023-05-09T00:43:23.039Z,3.45
2023-05-09T00:45:50.420Z,3.15
2023-05-09T00:48:17.742Z,3.53
2023-05-09T00:50:45.088Z,3.50
2023-05-09T00:53:12.434Z,4.17
2023-05-09T00:55:40.078Z,3.72
2023-05-09T00:58:07.381Z,3.72
2023-05-09T01:00:34.691Z,3.47
2023-05-09T01:03:02.054Z,3.70
2023-05-09T01:05:44.567Z,3.13
2023-05-09T01:08:18.116Z,3.45
2023-05-09T01:11:12.641Z,3.90
2023-05-09T01:13:44.924Z,3.50
2023-05-09T01:16:49.625Z,3.60
2023-05-09T01:19:44.259Z,3.80
2023-05-09T01:22:12.201Z,3.72
2023-05-09T01:25:27.264Z,3.95
2023-05-09T01:28:29.490Z,3.33
2023-05-09T01:30:56.970Z,3.90
2023-05-09T01:33:24.376Z,4.10
2023-05-09T01:35:52.927Z,3.78
2023-05-09T01:38:22.052Z,3.60
2023-05-09T01:40:50.320Z,4.03
2023-05-09T01:43:17.959Z,3.65
2023-05-09T01:45:45.312Z,3.80
2023-05-09T01:48:12.588Z,4.30
2023-05-09T01:50:39.847Z,3.60
2023-05-09T01:53:07.161Z,3.60
2023-05-09T01:55:34.883Z,4.07
2023-05-09T01:58:06.238Z,3.87
2023-05-09T02:00:34.202Z,3.80
2023-05-09T02:03:02.131Z,4.10
2023-05-09T02:05:29.862Z,3.65
2023-05-09T02:07:58.584Z,4.18
2023-05-09T02:10:27.492Z,3.90
2023-05-09T02:12:55.165Z,3.95
2023-05-09T02:15:22.934Z,4.20
2023-05-09T02:17:51.490Z,3.90
2023-05-09T02:20:18.823Z,4.13
2023-05-09T02:22:46.120Z,4.13
2023-05-09T02:25:15.740Z,4.15
2023-05-09T02:27:44.256Z,3.90
2023-05-09T02:30:15.186Z,3.83
2023-05-09T02:32:43.443Z,4.30
2023-05-09T02:35:10.843Z,3.87
2023-05-09T02:37:39.048Z,4.32
2023-05-09T02:40:09.286Z,3.60
2023-05-09T02:42:36.747Z,4.07
2023-05-09T02:45:04.392Z,4.00
2023-05-09T02:47:31.991Z,4.53
2023-05-09T02:49:59.300Z,3.97
2023-05-09T02:52:26.540Z,3.47
2023-05-09T02:54:53.787Z,3.92
2023-05-09T02:57:21.354Z,3.97
2023-05-09T02:59:48.680Z,3.80
2023-05-09T03:02:16.800Z,4.40
2023-05-09T03:04:44.450Z,3.83
2023-05-09T03:07:12.170Z,3.92
2023-05-09T03:09:41.082Z,3.35
2023-05-09T03:12:08.627Z,3.83
2023-05-09T03:14:36.739Z,4.18
2023-05-09T03:17:04.075Z,4.25
2023-05-09T03:19:35.341Z,4.05
2023-05-09T03:22:02.683Z,4.72
2023-05-09T03:24:33.234Z,3.93
2023-05-09T03:27:00.566Z,4.30
2023-05-09T03:29:28.297Z,4.25
2023-05-09T03:31:55.746Z,4.00
2023-05-09T03:34:23.268Z,4.10
2023-05-09T03:36:50.620Z,3.63
2023-05-09T03:39:17.913Z,4.25
2023-05-09T03:41:48.866Z,4.15
2023-05-09T03:44:16.222Z,4.30
2023-05-09T03:46:43.531Z,4.53
2023-05-09T03:49:11.045Z,4.20
2023-05-09T03:51:39.995Z,4.97
2023-05-09T03:54:12.805Z,4.43
2023-05-09T03:56:40.870Z,4.35
2023-05-09T03:59:08.201Z,4.38
2023-05-09T04:04:04.468Z,4.82
2023-05-09T04:06:34.508Z,4.28
2023-05-09T04:09:03.129Z,4.57
2023-05-09T04:11:30.706Z,4.55
2023-05-09T04:13:59.581Z,4.60
2023-05-09T04:16:31.229Z,4.03
2023-05-09T04:18:59.252Z,4.47
2023-05-09T04:21:26.545Z,4.55
2023-05-09T04:23:56.922Z,5.20
2023-05-09T04:26:31.531Z,4.30
2023-05-09T04:28:59.872Z,4.55
2023-05-09T04:31:27.957Z,4.30
2023-05-09T04:33:58.359Z,4.13
2023-05-09T04:36:27.808Z,4.82
2023-05-09T04:38:57.627Z,4.53
2023-05-09T04:41:27.754Z,4.55
2023-05-09T04:43:56.320Z,4.38
2023-05-09T04:46:26.361Z,4.18
2023-05-09T04:48:54.219Z,4.20
2023-05-09T04:51:21.514Z,3.87
2023-05-09T04:53:49.995Z,4.22
2023-05-09T04:56:19.855Z,4.10
2023-05-09T04:58:48.771Z,4.80
2023-05-09T05:01:16.842Z,4.63
2023-05-09T05:03:44.672Z,4.50
2023-05-09T05:06:12.102Z,4.80
2023-05-09T05:08:41.703Z,4.32
2023-05-09T05:11:09.619Z,4.97
2023-05-09T05:13:36.977Z,4.50
2023-05-09T05:16:04.560Z,4.50
2023-05-09T05:18:31.952Z,4.35
2023-05-09T05:20:59.246Z,5.00
2023-05-09T05:23:27.420Z,4.53
2023-05-09T05:25:55.710Z,5.05
2023-05-09T05:28:23.565Z,4.47
2023-05-09T05:30:50.917Z,4.20
2023-05-09T05:33:18.228Z,5.03
2023-05-09T05:35:45.765Z,3.92
2023-05-09T05:38:14.311Z,4.30
2023-05-09T05:40:42.884Z,4.50
2023-05-09T05:43:10.497Z,4.18
2023-05-09T05:45:39.386Z,4.40
2023-05-09T05:48:09.487Z,4.43
2023-05-09T05:50:36.781Z,4.03
2023-05-09T05:53:04.591Z,4.30
2023-05-09T05:55:31.945Z,4.53
2023-05-09T05:57:59.334Z,4.00
2023-05-09T06:00:26.719Z,4.18
2023-05-09T06:03:01.474Z,4.35
2023-05-09T06:05:35.051Z,4.03
2023-05-09T06:08:02.406Z,3.88
2023-05-09T06:10:29.729Z,3.80
2023-05-09T06:12:57.059Z,4.05
2023-05-09T06:15:24.383Z,3.95
2023-05-09T06:17:51.701Z,3.93
2023-05-09T06:20:19.077Z,3.90
2023-05-09T06:22:46.409Z,3.35
2023-05-09T06:25:13.896Z,3.63
2023-05-09T06:27:42.188Z,3.78
2023-05-09T06:30:23.720Z,3.13
2023-05-09T06:32:52.640Z,3.38
2023-05-09T06:35:19.920Z,3.60
2023-05-09T06:37:48.573Z,3.35
2023-05-09T06:40:17.109Z,3.40
2023-05-09T06:42:44.940Z,3.43
2023-05-09T06:45:12.627Z,2.90
2023-05-09T06:47:40.139Z,3.13
2023-05-09T06:50:08.322Z,3.10
2023-05-09T06:52:35.987Z,3.50
2023-05-09T06:55:03.917Z,3.40
2023-05-09T06:57:31.304Z,3.30
2023-05-09T06:59:58.601Z,3.42
2023-05-09T07:02:26.048Z,3.25
2023-05-09T07:04:53.418Z,3.75
2023-05-09T07:07:20.730Z,3.73
2023-05-09T07:09:49.322Z,3.17
2023-05-09T07:12:20.150Z,3.50
2023-05-09T07:14:47.424Z,2.80
2023-05-09T07:17:23.040Z,2.90
2023-05-09T07:19:51.694Z,2.63
2023-05-09T07:22:19.282Z,3.20
2023-05-09T07:24:46.729Z,2.90
2023-05-09T07:27:14.054Z,3.50
2023-05-09T07:29:41.366Z,2.90
2023-05-09T07:32:08.922Z,2.37
2023-05-09T07:34:36.416Z,2.25
2023-05-09T07:37:03.780Z,2.72
2023-05-09T07:39:31.138Z,2.92
2023-05-09T07:41:58.513Z,2.90
2023-05-09T07:44:25.894Z,3.23
2023-05-09T07:46:55.448Z,2.58
2023-05-09T07:49:22.777Z,3.05
2023-05-09T07:51:50.044Z,2.85
2023-05-09T07:54:17.478Z,2.70
2023-05-09T07:56:44.764Z,2.43
2023-05-09T07:59:12.408Z,2.70
2023-05-09T08:01:39.698Z,2.33
2023-05-09T08:04:09.200Z,2.58
2023-05-09T08:06:36.758Z,2.53
2023-05-09T08:09:05.119Z,1.40
2023-05-09T08:11:36.058Z,1.20
2023-05-09T08:14:03.539Z,1.27
2023-05-09T08:16:31.170Z,1.30
2023-05-09T08:18:58.466Z,1.35
2023-05-09T08:21:26.669Z,1.50
2023-05-09T08:23:54.078Z,1.25
2023-05-09T08:26:22.748Z,1.20
2023-05-09T08:28:50.062Z,1.60
2023-05-09T08:31:17.570Z,1.33
2023-05-09T08:33:44.947Z,1.50
2023-05-09T08:36:12.251Z,1.38
2023-05-09T08:38:40.587Z,1.40
2023-05-09T08:41:08.005Z,1.20
2023-05-09T08:43:35.490Z,1.30
2023-05-09T08:46:08.030Z,1.20
2023-05-09T08:48:38.196Z,1.35
2023-05-09T08:51:06.300Z,1.38
2023-05-09T08:53:34.270Z,1.48
2023-05-09T08:56:02.978Z,1.30
2023-05-09T08:58:31.241Z,1.30
2023-05-09T09:00:58.509Z,1.35
2023-05-09T09:03:26.407Z,1.48
2023-05-09T09:05:54.491Z,1.23
2023-05-09T09:08:22.502Z,1.30
2023-05-09T09:10:49.867Z,1.20
2023-05-09T09:13:17.561Z,1.30
2023-05-09T09:15:46.322Z,1.50
2023-05-09T09:18:17.303Z,1.30
2023-05-09T09:21:06.723Z,1.40
2023-05-09T09:23:34.226Z,1.60
2023-05-09T09:26:02.251Z,1.80
2023-05-09T09:28:29.878Z,1.50
2023-05-09T09:30:57.146Z,1.50
2023-05-09T09:33:25.959Z,1.45
2023-05-09T09:35:54.597Z,1.60
2023-05-09T09:38:22.792Z,1.52
2023-05-09T09:40:54.787Z,1.33
2023-05-09T09:43:29.079Z,1.50
2023-05-09T09:45:57.225Z,1.50
2023-05-09T09:48:27.907Z,1.20
2023-05-09T09:50:56.958Z,1.45
2023-05-09T09:53:30.899Z,1.40
2023-05-09T09:55:58.611Z,1.60
2023-05-09T09:58:26.006Z,1.90
2023-05-09T10:01:09.354Z,1.60
2023-05-09T10:03:40.713Z,1.52
2023-05-09T10:06:14.751Z,1.92
2023-05-09T10:08:42.956Z,1.85
2023-05-09T10:11:10.494Z,1.58
2023-05-09T10:13:38.482Z,1.50
2023-05-09T10:16:06.128Z,1.90
2023-05-09T10:18:33.980Z,1.52
2023-05-09T10:21:03.446Z,1.55
2023-05-09T10:23:31.913Z,1.70
2023-05-09T10:26:18.880Z,1.57
2023-05-09T10:28:46.810Z,1.50
2023-05-09T10:31:28.377Z,1.80
2023-05-09T10:33:56.132Z,1.60
2023-05-09T10:36:26.436Z,1.50
2023-05-09T10:38:55.157Z,1.60
2023-05-09T10:41:22.655Z,1.73
2023-05-09T10:43:50.141Z,1.80
2023-05-09T10:46:17.823Z,1.77
2023-05-09T10:48:45.313Z,1.70
2023-05-09T10:51:12.673Z,1.60
2023-05-09T10:53:48.584Z,1.85
2023-05-09T10:56:35.984Z,1.67
2023-05-09T10:59:03.386Z,1.80
2023-05-09T11:01:39.258Z,1.50
2023-05-09T11:04:17.154Z,1.60
2023-05-09T11:06:49.494Z,1.70
2023-05-09T11:09:33.741Z,2.10
2023-05-09T11:12:21.959Z,1.75
2023-05-09T11:14:50.153Z,2.00
2023-05-09T11:17:24.632Z,1.97
2023-05-09T11:19:51.896Z,1.83
2023-05-09T11:22:28.645Z,1.80
2023-05-09T11:25:27.822Z,1.70
2023-05-09T11:27:58.830Z,1.88
2023-05-09T11:30:35.874Z,1.73
2023-05-09T11:33:03.632Z,1.80
2023-05-09T11:35:31.421Z,1.90
2023-05-09T11:38:07.781Z,1.70
2023-05-09T11:40:35.316Z,2.08
2023-05-09T11:43:02.710Z,1.60
2023-05-09T11:45:33.527Z,1.70
2023-05-09T11:48:01.463Z,2.22
2023-05-09T11:50:29.496Z,1.63
2023-05-09T11:52:56.891Z,1.70
2023-05-09T11:55:27.403Z,1.53
2023-05-09T11:57:54.873Z,1.40
2023-05-09T12:00:23.392Z,1.70
2023-05-09T12:02:51.518Z,1.55
2023-05-09T12:05:20.231Z,1.55
2023-05-09T12:07:47.699Z,1.60
2023-05-09T12:10:22.845Z,1.50
2023-05-09T12:12:51.742Z,1.80
2023-05-09T12:15:22.341Z,1.60
2023-05-09T12:18:05.915Z,1.85
2023-05-09T12:20:50.564Z,1.70
2023-05-09T12:23:18.128Z,1.60
2023-05-09T12:25:57.880Z,1.58
2023-05-09T12:28:25.621Z,1.60
2023-05-09T12:30:53.283Z,1.70
2023-05-09T12:33:22.802Z,1.70
2023-05-09T12:36:07.898Z,1.60
2023-05-09T12:38:38.138Z,1.50
2023-05-09T12:41:10.741Z,1.35
2023-05-09T12:43:47.981Z,1.58
2023-05-09T12:46:19.228Z,1.70
2023-05-09T12:48:47.586Z,1.60
2023-05-09T12:51:23.697Z,1.50
2023-05-09T12:53:50.993Z,1.73
2023-05-09T12:56:23.539Z,1.80
2023-05-09T12:58:52.364Z,1.40
2023-05-09T13:01:20.691Z,1.70
2023-05-09T13:04:06.203Z,1.70
2023-05-09T13:06:34.516Z,1.65
2023-05-09T13:09:05.764Z,1.60
2023-05-09T13:11:33.218Z,2.07
2023-05-09T13:14:02.410Z,1.80
2023-05-09T13:16:29.726Z,1.90
2023-05-09T13:18:57.017Z,2.00
2023-05-09T13:21:24.398Z,1.80
2023-05-09T13:23:52.203Z,1.80
2023-05-09T13:26:19.617Z,1.63
2023-05-09T13:28:46.979Z,1.60
2023-05-09T13:31:14.484Z,1.40
2023-05-09T13:33:41.867Z,1.38
2023-05-09T13:36:09.227Z,1.47
2023-05-09T13:38:40.442Z,1.45
2023-05-09T13:41:08.131Z,1.60
2023-05-09T13:43:35.842Z,1.80
2023-05-09T13:46:03.390Z,1.50
2023-05-09T13:48:30.723Z,1.23
2023-05-09T13:50:59.904Z,1.63
2023-05-09T13:53:27.502Z,1.55
2023-05-09T13:55:54.947Z,1.65
2023-05-09T13:58:22.722Z,1.80
2023-05-09T14:00:50.356Z,1.50
2023-05-09T14:03:17.818Z,1.65
2023-05-09T14:05:45.144Z,1.67
2023-05-09T14:08:12.497Z,1.42
2023-05-09T14:10:39.756Z,1.60
2023-05-09T14:13:08.506Z,1.30
2023-05-09T14:15:36.313Z,1.70
2023-05-09T14:18:03.897Z,1.77
2023-05-09T14:20:31.352Z,1.75
2023-05-09T14:23:00.746Z,1.80
2023-05-09T14:25:28.109Z,1.90
2023-05-09T14:27:55.398Z,1.80
2023-05-09T14:30:23.017Z,2.05
2023-05-09T14:32:50.898Z,1.80
2023-05-09T14:35:18.539Z,1.73
2023-05-09T14:37:45.963Z,1.70
2023-05-09T14:40:13.531Z,1.55
2023-05-09T14:42:41.190Z,1.73
2023-05-09T14:45:12.106Z,1.75
2023-05-09T14:47:39.518Z,1.50
2023-05-09T14:50:11.174Z,1.60
2023-05-09T14:52:39.564Z,1.48
2023-05-09T14:55:07.476Z,1.77
2023-05-09T14:57:34.855Z,1.55
2023-05-09T15:00:16.652Z,1.77
2023-05-09T15:02:48.312Z,1.90
2023-05-09T15:05:16.734Z,1.65
2023-05-09T15:07:44.032Z,1.45
2023-05-09T15:10:11.434Z,1.80
2023-05-09T15:12:38.710Z,1.45
2023-05-09T15:15:20.078Z,1.70
2023-05-09T15:17:47.442Z,1.70
2023-05-09T15:20:18.244Z,1.67
2023-05-09T15:22:46.751Z,1.60
2023-05-09T15:25:15.095Z,1.85
2023-05-09T15:27:42.591Z,1.77
2023-05-09T15:30:10.291Z,1.92
2023-05-09T15:32:40.820Z,1.75
2023-05-09T15:35:08.724Z,1.60
2023-05-09T15:37:36.485Z,2.30
2023-05-09T15:40:04.333Z,2.10
2023-05-09T15:42:31.705Z,1.80
2023-05-09T15:44:58.940Z,2.15
2023-05-09T15:47:26.309Z,2.40
2023-05-09T15:49:53.626Z,2.30
2023-05-09T15:52:20.943Z,2.20
2023-05-09T15:54:48.357Z,1.95
2023-05-09T15:57:16.872Z,2.28
2023-05-09T15:59:44.272Z,2.35
2023-05-09T16:02:12.422Z,2.63
2023-05-09T16:04:39.801Z,2.70
2023-05-09T16:07:08.639Z,2.28
2023-05-09T16:09:37.388Z,2.20
2023-05-09T16:12:05.447Z,2.55
2023-05-09T16:14:32.879Z,2.22
2023-05-09T16:17:00.214Z,2.10
2023-05-09T16:19:27.555Z,1.70
2023-05-09T16:21:56.253Z,2.33
2023-05-09T16:24:23.618Z,1.80
2023-05-09T16:26:50.912Z,1.60
2023-05-09T16:29:18.274Z,1.57
2023-05-09T16:31:45.816Z,1.90
2023-05-09T16:34:14.450Z,2.08
2023-05-09T16:36:44.119Z,1.80
2023-05-09T16:39:11.477Z,1.70
2023-05-09T16:41:38.809Z,1.80
2023-05-09T16:44:06.083Z,1.83
2023-05-09T16:46:33.450Z,1.77
2023-05-09T16:49:00.733Z,1.73
2023-05-09T16:51:28.080Z,2.20
2023-05-09T16:53:55.454Z,1.63
2023-05-09T16:56:23.393Z,2.25
2023-05-09T16:58:51.753Z,1.80
2023-05-09T17:01:19.161Z,2.00
2023-05-09T17:03:46.498Z,1.80
2023-05-09T17:06:14.004Z,1.77
2023-05-09T17:08:41.321Z,1.80
2023-05-09T17:11:09.071Z,1.80
2023-05-09T17:13:36.404Z,1.50
2023-05-09T17:16:03.935Z,1.85
2023-05-09T17:18:37.566Z,1.80
2023-05-09T17:21:05.611Z,1.90
2023-05-09T17:23:32.867Z,2.10
2023-05-09T17:26:01.695Z,2.03
2023-05-09T17:28:30.239Z,2.47
2023-05-09T17:30:59.084Z,2.23
2023-05-09T17:33:26.972Z,2.13
2023-05-09T17:35:54.703Z,2.45
2023-05-09T17:38:22.008Z,2.47
2023-05-09T17:40:49.320Z,2.50
2023-05-09T17:43:16.634Z,2.30
2023-05-09T17:45:44.346Z,2.22
2023-05-09T17:48:11.696Z,2.22
2023-05-09T17:50:39.006Z,2.10
2023-05-09T17:53:08.801Z,2.40
2023-05-09T17:55:39.174Z,2.20
2023-05-09T17:58:08.085Z,2.45
2023-05-09T18:00:35.507Z,2.08
2023-05-09T18:03:04.098Z,2.00
2023-05-09T18:05:31.579Z,2.20
2023-05-09T18:08:00.889Z,2.03
2023-05-09T18:10:28.861Z,2.47
2023-05-09T18:12:56.280Z,2.55
2023-05-09T18:15:24.360Z,3.13
2023-05-09T18:17:53.773Z,3.28
2023-05-09T18:20:21.195Z,3.60
2023-05-09T18:22:48.618Z,3.85
2023-05-09T18:25:17.090Z,3.25
2023-05-09T18:27:44.443Z,3.53
2023-05-09T18:30:12.255Z,2.90
2023-05-09T18:32:40.540Z,2.80
2023-05-09T18:35:08.508Z,2.38
2023-05-09T18:37:36.930Z,2.33
2023-05-09T18:40:05.479Z,2.80
2023-05-09T18:42:32.789Z,2.35
2023-05-09T18:45:00.986Z,2.00
2023-05-09T18:47:28.406Z,2.38
2023-05-09T18:49:55.719Z,2.53
2023-05-09T18:52:24.240Z,2.60
2023-05-09T18:54:51.532Z,2.45
2023-05-09T18:57:20.000Z,2.27
2023-05-09T18:59:47.615Z,2.40
2023-05-09T19:02:14.876Z,2.40
2023-05-09T19:04:46.097Z,2.47
2023-05-09T19:07:15.062Z,2.70
2023-05-09T19:09:42.380Z,2.47
2023-05-09T19:12:09.831Z,2.55
2023-05-09T19:14:38.087Z,2.50
2023-05-09T19:17:07.794Z,2.40
2023-05-09T19:19:35.164Z,2.92
2023-05-09T19:22:02.405Z,2.73
2023-05-09T19:24:32.066Z,2.55
2023-05-09T19:26:59.408Z,3.90
2023-05-09T19:29:26.915Z,3.55
2023-05-09T19:31:56.647Z,3.83
2023-05-09T19:34:24.010Z,3.30
2023-05-09T19:36:52.607Z,2.90
2023-05-09T19:39:19.860Z,3.42
2023-05-09T19:41:47.226Z,4.65
2023-05-09T19:44:14.545Z,4.88
2023-05-09T19:46:43.132Z,4.70
2023-05-09T19:49:10.675Z,4.80
2023-05-09T19:51:38.374Z,5.80
2023-05-09T19:54:05.913Z,5.82
2023-05-09T19:56:33.195Z,6.72
2023-05-09T19:59:00.545Z,5.93
2023-05-09T20:01:28.404Z,5.70
2023-05-09T20:03:56.841Z,6.53
2023-05-09T20:06:25.434Z,6.55
2023-05-09T20:08:52.717Z,5.82
2023-05-09T20:11:21.009Z,6.20
2023-05-09T20:13:48.348Z,7.88
2023-05-09T20:16:15.834Z,6.95
2023-05-09T20:18:44.340Z,7.20
2023-05-09T20:21:11.710Z,7.55
2023-05-09T20:23:39.685Z,7.17
2023-05-09T20:26:06.980Z,8.40
2023-05-09T20:28:34.319Z,7.85
2023-05-09T20:31:01.581Z,6.57
2023-05-09T20:33:29.139Z,6.80
2023-05-09T20:35:56.425Z,6.93
2023-05-09T20:38:23.736Z,6.63
2023-05-09T20:40:51.032Z,6.82
2023-05-09T20:43:19.244Z,6.22
2023-05-09T20:45:46.569Z,5.75
2023-05-09T20:48:13.873Z,6.30
2023-05-09T20:50:41.173Z,5.82
2023-05-09T20:53:08.498Z,6.47
2023-05-09T20:55:35.842Z,7.90
2023-05-09T20:58:03.193Z,8.10
2023-05-09T21:00:30.611Z,6.07
2023-05-09T21:02:58.816Z,6.18
2023-05-09T21:05:26.382Z,6.90
2023-05-09T21:07:53.689Z,6.45
2023-05-09T21:10:21.089Z,5.75
2023-05-09T21:12:48.557Z,6.80
2023-05-09T21:15:16.039Z,6.32
2023-05-09T21:17:43.428Z,5.70
2023-05-09T21:20:11.126Z,5.85
2023-05-09T21:22:38.475Z,5.60
2023-05-09T21:25:06.479Z,6.23
2023-05-09T21:27:33.755Z,5.60
2023-05-09T21:30:01.046Z,5.97
2023-05-09T21:32:28.722Z,5.90
2023-05-09T21:34:56.070Z,6.03
2023-05-09T21:37:23.422Z,5.40
2023-05-09T21:39:50.808Z,5.03
2023-05-09T21:42:18.173Z,6.50
2023-05-09T21:44:45.485Z,7.07
2023-05-09T21:47:12.936Z,6.50
2023-05-09T21:49:40.842Z,7.67
2023-05-09T21:52:08.211Z,7.35
2023-05-09T21:54:35.709Z,7.15
2023-05-09T21:57:03.037Z,7.95
2023-05-09T21:59:30.401Z,7.47
2023-05-09T22:01:57.771Z,6.30
2023-05-09T22:04:25.076Z,6.25
2023-05-09T22:06:52.381Z,5.82
2023-05-09T22:09:19.707Z,6.45
2023-05-09T22:11:47.048Z,6.97
2023-05-09T22:14:14.336Z,7.90
2023-05-09T22:16:41.688Z,7.05
2023-05-09T22:19:09.059Z,6.03
2023-05-09T22:21:36.362Z,5.75
2023-05-09T22:24:03.903Z,5.45
2023-05-09T22:26:31.163Z,5.37
2023-05-09T22:28:58.477Z,5.10
2023-05-09T22:31:25.854Z,5.05
2023-05-09T22:33:53.166Z,4.53
2023-05-09T22:36:20.440Z,4.32
2023-05-09T22:38:47.677Z,5.10
2023-05-09T22:41:14.909Z,4.50
2023-05-09T22:43:42.229Z,4.15
2023-05-09T22:46:09.499Z,4.32
2023-05-09T22:48:36.792Z,4.70
2023-05-09T22:51:04.070Z,4.83
2023-05-09T22:53:31.364Z,4.18
2023-05-09T22:55:58.777Z,4.70
2023-05-09T22:58:26.469Z,4.22
2023-05-09T23:00:53.795Z,4.25
2023-05-09T23:03:21.830Z,4.10
2023-05-09T23:05:49.254Z,3.92
2023-05-09T23:08:16.552Z,3.67
2023-05-09T23:10:44.184Z,4.00
2023-05-09T23:13:12.336Z,3.58
2023-05-09T23:15:39.731Z,4.10
2023-05-09T23:18:09.907Z,3.80
2023-05-09T23:20:37.251Z,3.67
2023-05-09T23:23:04.777Z,3.60
2023-05-09T23:25:32.118Z,3.25
2023-05-09T23:27:59.384Z,3.60
2023-05-09T23:30:26.644Z,3.35
2023-05-09T23:32:54.076Z,3.65
2023-05-09T23:35:22.286Z,3.35
2023-05-09T23:37:49.522Z,3.30
2023-05-09T23:40:16.865Z,3.77
2023-05-09T23:42:44.346Z,3.88
2023-05-09T23:45:12.696Z,3.60
2023-05-09T23:47:39.980Z,3.80
2023-05-09T23:50:07.914Z,3.80
2023-05-09T23:52:35.186Z,3.63
2023-05-09T23:55:02.534Z,3.78
2023-05-09T23:57:29.829Z,3.45
2023-05-09T23:59:57.109Z,3.30
